createdAt,value
2023-05-02T00:00:32.777Z,15.77
2023-05-02T00:03:17.782Z,14.98
2023-05-02T00:06:03.091Z,14.93
2023-05-02T00:08:51.358Z,14.55
2023-05-02T00:11:36.594Z,14.68
2023-05-02T00:14:21.662Z,14.10
2023-05-02T00:17:06.783Z,15.43
2023-05-02T00:19:51.924Z,15.33
2023-05-02T00:22:36.809Z,14.85
2023-05-02T00:25:21.577Z,16.27
2023-05-02T00:28:06.376Z,14.60
2023-05-02T00:30:51.404Z,15.95
2023-05-02T00:33:36.238Z,15.70
2023-05-02T00:36:21.125Z,15.93
2023-05-02T00:39:05.987Z,15.85
2023-05-02T00:42:01.349Z,15.70
2023-05-02T00:44:46.879Z,15.68
2023-05-02T00:47:31.892Z,16.47
2023-05-02T00:50:17.865Z,15.32
2023-05-02T00:53:04.197Z,15.73
2023-05-02T00:55:49.522Z,15.55
2023-05-02T00:58:34.910Z,15.25
2023-05-02T01:01:44.675Z,14.87
2023-05-02T01:04:41.867Z,15.30
2023-05-02T01:07:49.372Z,15.25
2023-05-02T01:10:48.122Z,15.45
2023-05-02T01:13:34.925Z,15.93
2023-05-02T01:16:23.657Z,17.47
2023-05-02T01:19:19.256Z,16.15
2023-05-02T01:22:07.869Z,14.80
2023-05-02T01:25:12.846Z,14.93
2023-05-02T01:28:05.352Z,17.08
2023-05-02T01:30:52.760Z,16.00
2023-05-02T01:33:39.446Z,15.13
2023-05-02T01:36:27.985Z,16.67
2023-05-02T01:39:18.458Z,18.08
2023-05-02T01:42:05.046Z,17.13
2023-05-02T01:44:54.508Z,16.57
2023-05-02T01:47:41.445Z,16.35
2023-05-02T01:50:27.218Z,17.38
2023-05-02T01:53:14.509Z,16.98
2023-05-02T01:56:00.626Z,17.80
2023-05-02T01:58:47.546Z,17.70
2023-05-02T02:01:35.099Z,19.25
2023-05-02T02:04:22.077Z,17.95
2023-05-02T02:07:09.506Z,18.38
2023-05-02T02:09:54.657Z,17.60
2023-05-02T02:12:45.335Z,18.80
2023-05-02T02:15:35.336Z,18.25
2023-05-02T02:18:23.372Z,18.27
2023-05-02T02:21:11.624Z,17.83
2023-05-02T02:24:00.766Z,17.05
2023-05-02T02:26:46.374Z,16.40
2023-05-02T02:29:31.476Z,15.60
2023-05-02T02:32:16.472Z,17.27
2023-05-02T02:35:03.149Z,17.52
2023-05-02T02:38:18.115Z,16.83
2023-05-02T02:41:31.754Z,16.27
2023-05-02T02:44:33.852Z,18.05
2023-05-02T02:47:32.099Z,18.00
2023-05-02T02:50:32.553Z,17.80
2023-05-02T02:53:20.572Z,18.30
2023-05-02T02:56:12.194Z,17.77
2023-05-02T02:59:05.940Z,16.50
2023-05-02T03:02:02.852Z,17.13
2023-05-02T03:04:49.636Z,17.08
2023-05-02T03:07:34.610Z,15.07
2023-05-02T03:10:19.956Z,15.10
2023-05-02T03:13:04.935Z,14.32
2023-05-02T03:15:53.140Z,14.13
2023-05-02T03:18:38.448Z,14.48
2023-05-02T03:21:23.630Z,14.25
2023-05-02T03:24:08.694Z,12.43
2023-05-02T03:26:58.929Z,14.13
2023-05-02T03:29:44.041Z,13.32
2023-05-02T03:32:29.238Z,14.18
2023-05-02T03:35:14.267Z,13.90
2023-05-02T03:37:59.085Z,14.47
2023-05-02T03:40:44.275Z,12.70
2023-05-02T03:43:29.540Z,14.18
2023-05-02T03:46:14.738Z,14.27
2023-05-02T03:48:59.594Z,13.43
2023-05-02T03:51:44.891Z,13.00
2023-05-02T03:54:32.426Z,14.25
2023-05-02T03:57:17.824Z,13.13
2023-05-02T04:00:02.921Z,13.73
2023-05-02T04:02:48.045Z,12.95
2023-05-02T04:05:33.148Z,12.50
2023-05-02T04:08:18.705Z,13.93
2023-05-02T04:11:03.814Z,12.82
2023-05-02T04:13:49.662Z,13.68
2023-05-02T04:16:34.959Z,13.48
2023-05-02T04:19:20.783Z,12.57
2023-05-02T04:22:06.139Z,13.55
2023-05-02T04:24:51.328Z,14.50
2023-05-02T04:27:36.568Z,14.57
2023-05-02T04:30:21.581Z,14.55
2023-05-02T04:33:06.637Z,15.30
2023-05-02T04:35:52.858Z,16.55
2023-05-02T04:38:37.974Z,15.35
2023-05-02T04:41:23.128Z,15.57
2023-05-02T04:44:07.975Z,16.30
2023-05-02T04:46:52.829Z,16.07
2023-05-02T04:49:37.672Z,17.05
2023-05-02T04:52:22.546Z,16.52
2023-05-02T04:55:07.815Z,15.27
2023-05-02T04:57:52.926Z,15.35
2023-05-02T05:00:38.010Z,16.53
2023-05-02T05:03:23.313Z,14.95
2023-05-02T05:06:08.262Z,14.73
2023-05-02T05:08:53.198Z,16.30
2023-05-02T05:11:39.262Z,17.05
2023-05-02T05:14:24.399Z,15.97
2023-05-02T05:17:09.400Z,15.55
2023-05-02T05:19:54.558Z,17.08
2023-05-02T05:22:39.955Z,15.52
2023-05-02T05:25:27.495Z,15.88
2023-05-02T05:28:12.711Z,13.30
2023-05-02T05:30:57.583Z,14.75
2023-05-02T05:33:43.653Z,13.55
2023-05-02T05:36:28.471Z,12.60
2023-05-02T05:39:13.746Z,11.27
2023-05-02T05:41:58.928Z,12.27
2023-05-02T05:44:43.969Z,12.27
2023-05-02T05:47:28.962Z,11.20
2023-05-02T05:50:14.381Z,11.18
2023-05-02T05:52:59.200Z,9.23
2023-05-02T05:55:44.756Z,9.93
2023-05-02T05:58:29.829Z,10.15
2023-05-02T06:01:15.150Z,10.20
2023-05-02T06:03:59.902Z,9.77
2023-05-02T06:06:45.235Z,9.90
2023-05-02T06:09:30.213Z,8.83
2023-05-02T06:12:16.281Z,9.18
2023-05-02T06:15:01.710Z,9.48
2023-05-02T06:17:46.599Z,9.30
2023-05-02T06:20:31.541Z,8.68
2023-05-02T06:23:16.614Z,8.97
2023-05-02T06:26:03.800Z,8.70
2023-05-02T06:28:48.738Z,8.65
2023-05-02T06:31:33.530Z,8.38
2023-05-02T06:34:18.530Z,9.30
2023-05-02T06:37:03.222Z,8.53
2023-05-02T06:39:48.397Z,8.98
2023-05-02T06:42:33.205Z,8.57
2023-05-02T06:45:18.432Z,9.68
2023-05-02T06:48:03.540Z,9.07
2023-05-02T06:50:49.184Z,8.50
2023-05-02T06:53:34.437Z,8.82
2023-05-02T06:56:19.393Z,9.75
2023-05-02T06:59:05.182Z,9.02
2023-05-02T07:01:50.283Z,8.05
2023-05-02T07:04:35.491Z,8.07
2023-05-02T07:07:21.987Z,8.43
2023-05-02T07:10:07.673Z,8.38
2023-05-02T07:12:52.455Z,8.05
2023-05-02T07:15:37.521Z,7.10
2023-05-02T07:18:22.654Z,6.90
2023-05-02T07:21:08.438Z,6.97
2023-05-02T07:23:55.398Z,7.63
2023-05-02T07:26:40.938Z,7.10
2023-05-02T07:29:25.941Z,7.22
2023-05-02T07:32:11.412Z,8.00
2023-05-02T07:34:56.945Z,8.10
2023-05-02T07:37:41.879Z,8.02
2023-05-02T07:40:28.373Z,8.30
2023-05-02T07:43:14.140Z,8.82
2023-05-02T07:46:03.376Z,8.87
2023-05-02T07:48:48.645Z,6.43
2023-05-02T07:51:33.781Z,4.95
2023-05-02T07:54:20.322Z,3.60
2023-05-02T07:57:08.162Z,3.25
2023-05-02T07:59:53.061Z,3.23
2023-05-02T08:02:38.245Z,2.92
2023-05-02T08:05:22.996Z,3.30
2023-05-02T08:08:08.559Z,3.00
2023-05-02T08:10:53.780Z,2.70
2023-05-02T08:13:38.883Z,2.33
2023-05-02T08:16:23.999Z,2.92
2023-05-02T08:19:09.248Z,3.10
2023-05-02T08:21:55.036Z,3.65
2023-05-02T08:24:40.205Z,3.50
2023-05-02T08:27:25.230Z,3.70
2023-05-02T08:30:11.000Z,3.33
2023-05-02T08:32:55.940Z,3.72
2023-05-02T08:35:41.058Z,3.63
2023-05-02T08:38:26.579Z,3.30
2023-05-02T08:41:17.593Z,3.10
2023-05-02T08:44:03.944Z,2.75
2023-05-02T08:46:50.729Z,2.50
2023-05-02T08:49:36.251Z,2.72
2023-05-02T08:52:22.125Z,2.40
2023-05-02T08:55:07.385Z,2.20
2023-05-02T08:57:53.999Z,2.83
2023-05-02T09:00:41.192Z,2.90
2023-05-02T09:03:31.660Z,2.70
2023-05-02T09:06:18.683Z,2.35
2023-05-02T09:09:03.924Z,2.63
2023-05-02T09:11:50.306Z,2.47
2023-05-02T09:14:35.070Z,2.33
2023-05-02T09:17:20.922Z,2.90
2023-05-02T09:20:06.663Z,2.20
2023-05-02T09:22:52.777Z,2.40
2023-05-02T09:25:38.584Z,2.70
2023-05-02T09:28:38.560Z,1.80
2023-05-02T09:31:43.359Z,1.90
2023-05-02T09:34:29.315Z,1.45
2023-05-02T09:37:34.612Z,1.23
2023-05-02T09:40:20.335Z,1.40
2023-05-02T09:43:16.581Z,1.65
2023-05-02T09:46:03.060Z,2.50
2023-05-02T09:48:57.977Z,2.70
2023-05-02T09:51:43.898Z,2.57
2023-05-02T09:54:36.275Z,2.90
2023-05-02T09:57:21.805Z,3.10
2023-05-02T10:00:08.845Z,3.25
2023-05-02T10:02:54.243Z,3.45
2023-05-02T10:05:40.331Z,3.43
2023-05-02T10:08:27.356Z,2.60
2023-05-02T10:11:13.162Z,2.88
2023-05-02T10:13:59.403Z,2.78
2023-05-02T10:17:14.012Z,2.63
2023-05-02T10:20:06.634Z,2.60
2023-05-02T10:22:52.975Z,3.05
2023-05-02T10:25:38.161Z,2.80
2023-05-02T10:28:23.731Z,3.63
2023-05-02T10:31:14.189Z,2.92
2023-05-02T10:33:59.839Z,3.17
2023-05-02T10:36:45.758Z,2.95
2023-05-02T10:39:32.384Z,3.17
2023-05-02T10:42:19.476Z,3.05
2023-05-02T10:45:05.194Z,4.60
2023-05-02T10:47:50.705Z,3.90
2023-05-02T10:50:47.361Z,4.40
2023-05-02T10:53:36.745Z,4.10
2023-05-02T10:56:22.114Z,5.10
2023-05-02T10:59:34.828Z,5.00
2023-05-02T11:02:27.727Z,5.27
2023-05-02T11:05:12.860Z,3.92
2023-05-02T11:08:15.959Z,4.32
2023-05-02T11:11:43.820Z,3.38
2023-05-02T11:14:38.278Z,3.13
2023-05-02T11:17:23.310Z,3.40
2023-05-02T11:20:08.595Z,3.63
2023-05-02T11:22:55.232Z,3.55
2023-05-02T11:25:43.508Z,4.25
2023-05-02T11:28:37.588Z,3.92
2023-05-02T11:31:28.471Z,4.33
2023-05-02T11:34:13.373Z,4.35
2023-05-02T11:36:58.180Z,5.13
2023-05-02T11:39:43.468Z,4.95
2023-05-02T11:42:32.359Z,5.25
2023-05-02T11:45:18.451Z,5.10
2023-05-02T11:48:05.568Z,5.20
2023-05-02T11:51:03.609Z,4.65
2023-05-02T11:53:49.297Z,4.38
2023-05-02T11:56:34.336Z,5.13
2023-05-02T11:59:19.290Z,4.80
2023-05-02T12:02:04.056Z,4.80
2023-05-02T12:04:49.169Z,3.95
2023-05-02T12:07:37.393Z,4.03
2023-05-02T12:10:22.403Z,3.78
2023-05-02T12:13:08.912Z,3.63
2023-05-02T12:15:56.401Z,4.18
2023-05-02T12:18:41.832Z,3.17
2023-05-02T12:21:29.790Z,3.15
2023-05-02T12:24:15.570Z,2.70
2023-05-02T12:27:09.650Z,2.80
2023-05-02T12:29:55.019Z,3.10
2023-05-02T12:32:45.218Z,3.30
2023-05-02T12:35:31.109Z,3.50
2023-05-02T12:38:18.562Z,3.53
2023-05-02T12:41:03.454Z,3.10
2023-05-02T12:43:51.071Z,2.83
2023-05-02T12:46:36.320Z,3.42
2023-05-02T12:49:21.159Z,3.00
2023-05-02T12:52:06.062Z,3.67
2023-05-02T12:54:50.899Z,2.93
2023-05-02T12:57:35.970Z,3.47
2023-05-02T13:00:21.124Z,3.38
2023-05-02T13:03:06.838Z,3.08
2023-05-02T13:05:54.827Z,3.22
2023-05-02T13:08:39.570Z,3.20
2023-05-02T13:11:24.948Z,3.58
2023-05-02T13:14:11.377Z,3.30
2023-05-02T13:16:56.453Z,3.60
2023-05-02T13:19:50.445Z,3.47
2023-05-02T13:22:39.024Z,3.30
2023-05-02T13:25:24.441Z,3.70
2023-05-02T13:28:09.156Z,3.50
2023-05-02T13:30:54.291Z,3.33
2023-05-02T13:33:39.317Z,2.95
2023-05-02T13:36:24.508Z,2.60
2023-05-02T13:39:09.589Z,2.65
2023-05-02T13:41:55.182Z,3.30
2023-05-02T13:44:40.276Z,3.40
2023-05-02T13:47:26.340Z,3.78
2023-05-02T13:50:12.155Z,2.80
2023-05-02T13:52:56.991Z,2.70
2023-05-02T13:55:42.112Z,3.42
2023-05-02T13:58:27.270Z,2.75
2023-05-02T14:01:12.326Z,2.35
2023-05-02T14:03:57.583Z,2.63
2023-05-02T14:06:42.909Z,3.63
2023-05-02T14:09:27.908Z,3.00
2023-05-02T14:12:12.743Z,4.35
2023-05-02T14:14:57.760Z,4.68
2023-05-02T14:17:42.854Z,4.00
2023-05-02T14:20:27.678Z,3.58
2023-05-02T14:23:12.728Z,4.15
2023-05-02T14:25:58.082Z,4.57
2023-05-02T14:28:43.275Z,6.25
2023-05-02T14:31:28.288Z,3.97
2023-05-02T14:34:13.498Z,5.50
2023-05-02T14:36:58.460Z,5.30
2023-05-02T14:39:46.311Z,4.72
2023-05-02T14:42:32.101Z,4.93
2023-05-02T14:45:17.196Z,4.63
2023-05-02T14:48:02.466Z,3.50
2023-05-02T14:50:47.300Z,3.35
2023-05-02T14:53:32.220Z,2.95
2023-05-02T14:56:18.577Z,3.15
2023-05-02T14:59:03.808Z,2.37
2023-05-02T15:01:48.771Z,2.80
2023-05-02T15:04:33.895Z,3.70
2023-05-02T15:07:19.207Z,3.22
2023-05-02T15:10:04.855Z,3.20
2023-05-02T15:12:52.555Z,2.77
2023-05-02T15:15:37.673Z,3.10
2023-05-02T15:18:22.523Z,3.25
2023-05-02T15:21:07.733Z,3.92
2023-05-02T15:23:52.681Z,3.80
2023-05-02T15:26:38.310Z,4.00
2023-05-02T15:29:23.200Z,3.60
2023-05-02T15:32:08.328Z,3.60
2023-05-02T15:34:53.740Z,3.78
2023-05-02T15:37:38.451Z,3.67
2023-05-02T15:40:25.809Z,4.07
2023-05-02T15:43:11.213Z,3.45
2023-05-02T15:46:00.296Z,3.83
2023-05-02T15:48:45.177Z,3.50
2023-05-02T15:51:30.455Z,3.20
2023-05-02T15:54:15.955Z,3.13
2023-05-02T15:57:02.363Z,2.97
2023-05-02T15:59:47.086Z,2.63
2023-05-02T16:02:31.978Z,2.38
2023-05-02T16:05:17.123Z,2.53
2023-05-02T16:08:02.245Z,2.27
2023-05-02T16:10:47.446Z,2.63
2023-05-02T16:13:32.446Z,2.50
2023-05-02T16:16:17.227Z,2.47
2023-05-02T16:19:01.951Z,1.95
2023-05-02T16:21:47.622Z,2.20
2023-05-02T16:24:32.713Z,2.13
2023-05-02T16:27:18.046Z,2.05
2023-05-02T16:30:03.997Z,2.10
2023-05-02T16:32:48.945Z,2.35
2023-05-02T16:35:33.845Z,1.97
2023-05-02T16:38:19.073Z,2.53
2023-05-02T16:41:05.617Z,2.70
2023-05-02T16:43:50.947Z,2.83
2023-05-02T16:46:36.459Z,3.20
2023-05-02T16:49:21.816Z,2.10
2023-05-02T16:52:06.781Z,1.80
2023-05-02T16:54:52.328Z,2.70
2023-05-02T16:57:38.831Z,2.33
2023-05-02T17:00:23.792Z,2.53
2023-05-02T17:03:09.329Z,2.63
2023-05-02T17:05:54.267Z,3.05
2023-05-02T17:08:39.224Z,3.05
2023-05-02T17:11:25.236Z,2.10
2023-05-02T17:14:10.349Z,2.58
2023-05-02T17:16:55.614Z,2.50
2023-05-02T17:19:42.732Z,2.55
2023-05-02T17:22:27.961Z,2.70
2023-05-02T17:25:13.972Z,2.60
2023-05-02T17:27:58.825Z,2.55
2023-05-02T17:30:43.928Z,2.27
2023-05-02T17:33:28.979Z,2.65
2023-05-02T17:36:14.264Z,2.13
2023-05-02T17:38:59.429Z,2.20
2023-05-02T17:41:44.347Z,2.20
2023-05-02T17:44:35.767Z,2.77
2023-05-02T17:47:21.975Z,2.85
2023-05-02T17:50:07.801Z,2.70
2023-05-02T17:52:52.811Z,2.45
2023-05-02T17:55:37.629Z,2.53
2023-05-02T17:58:22.869Z,3.30
2023-05-02T18:01:12.110Z,2.42
2023-05-02T18:03:58.793Z,2.35
2023-05-02T18:06:43.718Z,2.65
2023-05-02T18:09:28.612Z,3.17
2023-05-02T18:12:13.639Z,2.70
2023-05-02T18:14:58.942Z,2.50
2023-05-02T18:17:44.084Z,3.00
2023-05-02T18:20:29.274Z,2.88
2023-05-02T18:23:13.985Z,2.67
2023-05-02T18:25:59.398Z,2.73
2023-05-02T18:28:46.556Z,2.55
2023-05-02T18:31:32.022Z,2.70
2023-05-02T18:34:16.937Z,3.50
2023-05-02T18:37:02.679Z,2.85
2023-05-02T18:39:47.712Z,2.60
2023-05-02T18:42:32.659Z,2.70
2023-05-02T18:45:17.657Z,2.40
2023-05-02T18:48:03.336Z,2.65
2023-05-02T18:50:48.281Z,2.67
2023-05-02T18:53:33.245Z,3.20
2023-05-02T18:56:18.112Z,2.53
2023-05-02T18:59:03.127Z,2.72
2023-05-02T19:01:50.789Z,2.28
2023-05-02T19:04:35.826Z,2.25
2023-05-02T19:07:20.706Z,2.33
2023-05-02T19:10:05.807Z,2.28
2023-05-02T19:12:50.986Z,2.60
2023-05-02T19:15:35.831Z,3.20
2023-05-02T19:18:23.784Z,2.85
2023-05-02T19:21:13.400Z,2.27
2023-05-02T19:23:58.254Z,2.50
2023-05-02T19:26:43.174Z,2.30
2023-05-02T19:29:28.018Z,2.08
2023-05-02T19:32:14.395Z,2.60
2023-05-02T19:35:01.029Z,2.30
2023-05-02T19:37:46.151Z,2.17
2023-05-02T19:40:31.110Z,2.65
2023-05-02T19:43:16.241Z,2.25
2023-05-02T19:46:01.790Z,2.75
2023-05-02T19:48:46.977Z,2.17
2023-05-02T19:51:34.112Z,2.67
2023-05-02T19:54:19.108Z,2.53
2023-05-02T19:57:04.470Z,2.30
2023-05-02T19:59:49.555Z,2.35
2023-05-02T20:02:34.518Z,2.13
2023-05-02T20:05:19.545Z,2.50
2023-05-02T20:08:04.749Z,2.30
2023-05-02T20:10:50.074Z,2.78
2023-05-02T20:13:35.200Z,2.40
2023-05-02T20:16:21.016Z,2.80
2023-05-02T20:19:06.097Z,2.42
2023-05-02T20:21:52.024Z,2.55
2023-05-02T20:24:37.152Z,2.70
2023-05-02T20:27:22.244Z,3.35
2023-05-02T20:30:10.402Z,2.70
2023-05-02T20:32:55.821Z,2.55
2023-05-02T20:35:41.228Z,3.13
2023-05-02T20:38:26.679Z,2.50
2023-05-02T20:41:13.144Z,2.88
2023-05-02T20:43:58.058Z,3.07
2023-05-02T20:46:43.693Z,2.90
2023-05-02T20:49:32.309Z,3.08
2023-05-02T20:52:17.765Z,2.70
2023-05-02T20:55:03.468Z,3.00
2023-05-02T20:57:52.656Z,2.93
2023-05-02T21:00:37.781Z,3.13
2023-05-02T21:03:22.716Z,3.08
2023-05-02T21:06:08.034Z,3.08
2023-05-02T21:08:55.009Z,2.95
2023-05-02T21:11:40.100Z,3.70
2023-05-02T21:14:25.828Z,3.80
2023-05-02T21:17:10.949Z,4.22
2023-05-02T21:19:56.080Z,3.20
2023-05-02T21:22:41.854Z,3.42
2023-05-02T21:25:27.004Z,3.10
2023-05-02T21:28:12.507Z,3.47
2023-05-02T21:30:57.324Z,3.40
2023-05-02T21:33:42.534Z,3.95
2023-05-02T21:36:27.748Z,3.60
2023-05-02T21:39:12.699Z,3.60
2023-05-02T21:41:57.802Z,3.67
2023-05-02T21:44:42.757Z,3.67
2023-05-02T21:47:27.977Z,2.95
2023-05-02T21:50:12.828Z,3.80
2023-05-02T21:52:58.215Z,3.93
2023-05-02T21:55:43.202Z,3.53
2023-05-02T21:58:28.351Z,3.97
2023-05-02T22:01:13.406Z,3.65
2023-05-02T22:03:58.484Z,3.60
2023-05-02T22:06:48.491Z,3.60
2023-05-02T22:09:33.785Z,3.55
2023-05-02T22:12:24.101Z,3.33
2023-05-02T22:15:09.551Z,3.97
2023-05-02T22:17:54.938Z,3.47
2023-05-02T22:20:44.643Z,3.60
2023-05-02T22:23:30.813Z,3.40
2023-05-02T22:26:15.964Z,4.45
2023-05-02T22:29:00.681Z,3.80
2023-05-02T22:31:46.998Z,3.83
2023-05-02T22:34:31.964Z,4.00
2023-05-02T22:37:17.230Z,4.60
2023-05-02T22:40:02.432Z,4.30
2023-05-02T22:42:47.708Z,4.07
2023-05-02T22:45:33.717Z,4.30
2023-05-02T22:48:18.697Z,4.10
2023-05-02T22:51:04.302Z,4.28
2023-05-02T22:53:49.514Z,4.25
2023-05-02T22:56:34.605Z,4.45
2023-05-02T22:59:19.518Z,3.95
2023-05-02T23:02:04.733Z,4.27
2023-05-02T23:04:50.597Z,4.10
2023-05-02T23:07:35.676Z,4.43
2023-05-02T23:10:20.957Z,4.03
2023-05-02T23:13:06.168Z,4.10
2023-05-02T23:15:55.039Z,4.00
2023-05-02T23:18:40.182Z,4.68
2023-05-02T23:21:25.050Z,4.30
2023-05-02T23:24:10.563Z,4.30
2023-05-02T23:26:55.586Z,4.40
2023-05-02T23:29:40.705Z,4.30
2023-05-02T23:32:25.994Z,4.10
2023-05-02T23:35:11.647Z,4.35
2023-05-02T23:37:59.537Z,4.40
2023-05-02T23:40:44.500Z,3.92
2023-05-02T23:43:29.912Z,3.93
2023-05-02T23:46:15.271Z,4.03
2023-05-02T23:48:59.908Z,3.75
2023-05-02T23:51:45.042Z,4.38
2023-05-02T23:54:31.918Z,3.95
2023-05-02T23:57:18.395Z,4.17
